Latest Coastal Weather Observations for Gabo Island

IDT60701

Issued at 4:22 am EST Friday 29 July 2016 (issued every 10 minutes, with the page automatically refreshed every 10 minutes)

About coastal observations | Map of coastal stations | Coastal observations for TAS | Marine services | Other Formats
Station Details ID: 084016 Name: GABO ISLAND LIGHTHOUSE Lat: -37.57 Lon: 149.92 Height: 15.2 m
Data from the previous 72 hours. | See also: Recent months at Gabo Island
Date/Time
EST
Temp
°C
Wind Pressure Rain since
9am
mm
Weather Cloud Vis
km
Sea
Height
m
Swell
Dir  Spd
kts
Gust
kts
hPa Trend Height
m
Period
s
Dir
29/04:00am 10.5 WNW 7 8 1018.9 - 0.0 - - - - - - -
29/03:30am 10.7 NW 5 7 1018.9 - 0.0 - - - - - - -
29/03:00am 10.7 NW 8 11 1019.0 - 0.0 Fine Mostly cloudy 30 1 1.0 - -
29/02:30am 10.7 WNW 9 11 1019.2 - 0.0 - - - - - - -
29/02:00am 10.5 WNW 7 10 1019.2 - 0.0 - - - - - - -
29/01:30am 11.3 NW 8 11 1019.3 - 0.0 - - - - - - -
29/01:00am 11.2 NW 9 13 1019.5 - 0.0 - - - - - - -
29/12:30am 11.1 NW 9 12 1019.8 - 0.0 - - - - - - -
29/12:00am 10.7 NW 8 11 1020.1 - 0.0 - - - - - - -
 
Date/Time
EST
Temp
°C
Wind Pressure Rain since
9am
mm
Weather Cloud Vis
km
Sea
Height
m
Swell
Dir  Spd
kts
Gust
kts
hPa Trend Height
m
Period
s
Dir
28/11:30pm 10.6 NW 8 11 1020.2 - 0.0 - - - - - - -
28/11:00pm 11.0 WNW 9 11 1020.4 - 0.0 - - - - - - -
28/10:30pm 10.8 WNW 10 14 1020.4 - 0.0 - - - - - - -
28/10:00pm 10.8 NW 8 11 1020.4 - 0.0 - - - - - - -
28/09:30pm 11.3 W 10 13 1020.5 - 0.0 - - - - - - -
28/09:00pm 11.0 W 10 13 1020.5 - 0.0 Fine Mostly clear 30 2 1.0 - -
28/08:30pm 10.9 W 9 11 1020.7 - 0.0 - - - - - - -
28/08:00pm 11.4 W 10 12 1020.5 - 0.0 - - - - - - -
28/07:30pm 12.2 W 13 16 1020.2 - 0.0 - - - - - - -
28/07:00pm 12.5 WSW 13 17 1020.1 - 0.0 - - - - - - -
28/06:30pm 12.7 WSW 15 18 1019.8 - 0.0 - - - - - - -
28/06:00pm 12.9 WSW 17 22 1019.4 - 0.0 - - - - - - -
28/05:30pm 13.0 SW 15 18 1019.3 - 0.0 - - - - - - -
28/05:00pm 13.2 SW 20 24 1018.9 - 0.0 - - - - - - -
28/04:30pm 13.4 SW 24 28 1018.8 - 0.0 - - - - - - -
28/04:00pm 13.8 SW 27 30 1018.5 - 0.0 - - - - - - -
28/03:30pm 14.1 SW 24 29 1018.4 - 0.0 - - - - - - -
28/03:00pm 14.3 SW 18 23 1018.4 - 0.0 Fine Mostly clear 30 2 1.0 - -
28/02:30pm 15.9 WSW 14 17 1018.4 - 0.0 - - - - - - -
28/02:00pm 16.2 WSW 14 17 1018.4 - 0.0 - - - - - - -
28/01:30pm 16.2 WSW 16 22 1018.5 - 0.0 - - - - - - -
28/01:00pm 16.1 WSW 16 21 1018.8 - 0.0 - - - - - - -
28/12:30pm 15.9 W 15 22 1019.0 - 0.0 - - - - - - -
28/12:00pm 15.6 W 17 22 1019.5 - 0.0 - - - - - - -
28/11:30am 15.2 W 20 26 1019.8 - 0.0 - - - - - - -
28/11:00am 14.9 W 20 25 1020.1 - 0.0 - - - - - - -
28/10:30am 14.4 W 15 22 1020.4 - 0.0 - - - - - - -
28/10:00am 14.1 W 12 16 1020.4 - 0.0 - - - - - - -
28/09:30am 13.8 WNW 11 14 1020.3 - 0.0 - - - - - - -
28/09:00am 12.9 W 13 17 1020.3 - 0.0 Fine Mostly clear 40 1 1.0 - -
28/08:30am 12.4 W 13 17 1020.2 - 0.0 - - - - - - -
28/08:00am 11.7 W 13 16 1020.0 - 0.0 - - - - - - -
28/07:30am 11.4 W 13 17 1019.7 - 0.0 - - - - - - -
28/07:00am 11.2 W 14 17 1019.6 - 0.0 - - - - - - -
28/06:30am 11.1 W 14 19 1019.2 - 0.0 - - - - - - -
28/06:00am 11.1 W 15 18 1018.9 - 0.0 - - - - - - -
28/05:30am 11.3 W 15 20 1018.7 - 0.0 - - - - - - -
28/05:00am 10.7 W 14 18 1018.5 - 0.0 - - - - - - -
28/04:30am 11.1 W 17 22 1018.1 - 0.0 - - - - - - -
28/04:00am 11.1 W 18 22 1018.4 - 0.0 - - - - - - -
28/03:30am 10.9 W 21 25 1018.2 - 0.0 - - - - - - -
28/03:00am 10.9 W 21 28 1018.0 - 0.0 Fine Mostly clear 30 2 1.0 - -
28/02:30am 10.6 W 20 26 1017.9 - 0.0 - - - - - - -
28/02:00am 10.6 W 20 24 1017.9 - 0.0 - - - - - - -
28/01:30am 10.6 W 21 25 1017.9 - 0.0 - - - - - - -
28/01:00am 10.2 W 16 20 1017.8 - 0.0 - - - - - - -
28/12:30am 9.9 W 15 18 1017.6 - 0.0 - - - - - - -
28/12:00am 9.7 W 17 20 1017.5 - 0.0 - - - - - - -
 
Date/Time
EST
Temp
°C
Wind Pressure Rain since
9am
mm
Weather Cloud Vis
km
Sea
Height
m
Swell
Dir  Spd
kts
Gust
kts
hPa Trend Height
m
Period
s
Dir
27/11:30pm 10.0 W 18 24 1017.4 - 0.0 - - - - - - -
27/11:00pm 10.2 W 23 28 1017.5 - 0.0 - - - - - - -
27/10:30pm 10.0 W 19 24 1017.9 - 0.0 - - - - - - -
27/10:00pm 9.9 W 18 23 1018.0 - 0.0 - - - - - - -
27/09:30pm 10.3 W 20 27 1017.8 - 0.0 - - - - - - -
27/09:00pm 10.4 W 21 27 1017.5 - 0.0 Fine Mostly clear 30 2 1.0 - -
27/08:30pm 10.8 WSW 22 27 1017.5 - 0.0 - - - - - - -
27/08:00pm 10.9 WSW 22 27 1016.8 - 0.0 - - - - - - -
27/07:30pm 10.9 W 19 24 1016.4 - 0.0 - - - - - - -
27/07:00pm 10.7 W 17 22 1016.1 - 0.0 - - - - - - -
27/06:30pm 11.1 W 18 24 1015.5 - 0.0 - - - - - - -
27/06:00pm 10.9 W 19 24 1014.8 - 0.0 - - - - - - -
27/05:30pm 11.0 WSW 22 27 1014.0 - 0.0 - - - - - - -
27/05:00pm 11.2 WSW 25 31 1013.4 - 0.0 - - - - - - -
27/04:42pm 11.6 WSW 26 37 1013.0 - 0.0 - - - - - - -
27/04:30pm 11.6 WSW 23 29 1012.9 - 0.0 - - - - - - -
27/04:00pm 12.0 WSW 26 34 1012.6 - 0.0 - - - - - - -
27/03:50pm 11.7 WSW 20 31 1012.6 - 0.0 - - - - - - -
27/03:30pm 11.4 WSW 22 29 1012.4 - 0.0 - - - - - - -
27/03:00pm 11.4 WSW 24 29 1011.8 - 0.0 Distant precip. Mostly cloudy 10 2 1.0 - -
27/02:30pm 11.2 WSW 27 35 1011.2 - 0.0 - - - - - - -
27/02:00pm 11.1 SW 30 40 1010.7 - 0.0 - - - - - - -
27/01:54pm 12.4 WSW 24 36 1010.7 - 0.0 - - - - - - -
27/01:30pm 12.3 W 24 29 1010.4 - 0.0 - - - - - - -
27/01:00pm 13.0 WSW 24 30 1010.1 - 0.0 - - - - - - -
27/12:30pm 13.6 WSW 22 28 1009.8 - 0.0 - - - - - - -
27/12:00pm 14.3 W 25 32 1009.6 - 0.0 - - - - - - -
27/11:30am 13.8 WSW 22 31 1009.7 - 0.0 - - - - - - -
27/11:00am 13.6 WSW 21 27 1009.5 - 0.0 - - - - - - -
27/10:51am 13.8 WSW 15 25 1009.5 - 0.0 - - - - - - -
27/10:30am 12.9 W 11 14 1009.5 - 0.0 - - - - - - -
27/10:00am 12.4 W 9 11 1009.1 - 0.0 - - - - - - -
27/09:30am 11.1 WNW 8 12 1008.7 - 0.0 - - - - - - -
27/09:00am 9.7 W 9 11 1008.3 - 0.0 Fine Partly cloudy 30 <0.5 1.0 - -
27/08:30am 9.5 WNW 9 10 1007.7 - 0.0 - - - - - - -
27/08:00am 8.7 WNW 8 9 1007.5 - 0.0 - - - - - - -
27/07:30am 8.5 WNW 6 7 1007.1 - 0.0 - - - - - - -
27/07:00am 8.1 N 7 9 1006.7 - 0.0 - - - - - - -
27/06:30am 7.4 N 8 10 1006.5 - 0.0 - - - - - - -
27/06:00am 9.0 N 9 11 1006.0 - 0.0 - - - - - - -
27/05:30am 8.8 N 9 11 1005.8 - 0.0 - - - - - - -
27/05:00am 8.0 N 10 11 1005.6 - 0.0 - - - - - - -
27/04:30am 7.7 N 9 11 1005.8 - 0.0 - - - - - - -
27/04:00am 8.6 N 9 12 1006.0 - 0.0 - - - - - - -
27/03:30am 9.1 N 9 11 1006.1 - 0.0 - - - - - - -
27/03:00am 9.2 N 8 10 1006.5 - 0.0 Fine Mostly clear 30 1 1.0 - -
27/02:30am 8.5 N 9 11 1006.9 - 0.0 - - - - - - -
27/02:00am 8.7 N 10 12 1007.3 - 0.0 - - - - - - -
27/01:30am 8.5 N 8 10 1007.6 - 0.0 - - - - - - -
27/01:00am 8.9 N 6 10 1008.0 - 0.0 - - - - - - -
27/12:30am 8.5 N 6 8 1008.4 - 0.0 - - - - - - -
27/12:00am 8.2 NW 6 8 1008.6 - 0.0 - - - - - - -
 
Date/Time
EST
Temp
°C
Wind Pressure Rain since
9am
mm
Weather Cloud Vis
km
Sea
Height
m
Swell
Dir  Spd
kts
Gust
kts
hPa Trend Height
m
Period
s
Dir
26/11:30pm 9.0 NW 7 8 1008.5 - 0.0 - - - - - - -
26/11:00pm 8.4 WNW 8 11 1008.7 - 0.0 - - - - - - -
26/10:30pm 9.1 NW 4 5 1008.9 - 0.0 - - - - - - -
26/10:00pm 9.1 N 5 7 1009.0 - 0.0 - - - - - - -
26/09:30pm 9.5 WNW 6 8 1009.4 - 0.0 - - - - - - -
26/09:00pm 8.5 N 8 9 1009.6 - 0.0 Fine Mostly clear 30 1 1.0 - -
26/08:30pm 10.0 NNW 5 6 1009.7 - 0.0 - - - - - - -
26/08:00pm 9.6 NW 4 6 1009.9 - 0.0 - - - - - - -
26/07:30pm 9.4 NW 6 7 1010.0 - 0.0 - - - - - - -
26/07:00pm 9.7 WNW 3 5 1010.0 - 0.0 - - - - - - -
26/06:30pm 9.0 N 5 6 1010.2 - 0.0 - - - - - - -
26/06:00pm 11.1 CALM 0 1 1010.3 - 0.0 - - - - - - -
26/05:30pm 11.8 SSE 4 6 1010.1 - 0.0 - - - - - - -
26/05:00pm 12.0 SSW 6 8 1010.1 - 0.0 - - - - - - -
26/04:30pm 12.8 SSW 7 9 1009.9 - 0.0 - - - - - - -
26/04:00pm 13.5 S 7 8 1009.8 - 0.0 - - - - - - -
26/03:30pm 14.0 S 6 7 1009.9 - 0.0 - - - - - - -
26/03:00pm 14.2 SSW 6 6 1009.8 - 0.0 Fine Partly cloudy 50 1 1.0 - -
26/02:30pm 14.0 SW 7 9 1009.8 - 0.0 - - - - - - -
26/02:00pm 14.6 WSW 6 8 1009.9 - 0.0 - - - - - - -
26/01:30pm 14.5 WSW 6 9 1009.8 - 0.0 - - - - - - -
26/01:00pm 14.1 WSW 8 11 1009.8 - 0.0 - - - - - - -
26/12:30pm 14.3 W 11 16 1010.2 - 0.0 - - - - - - -
26/12:00pm 13.8 W 15 18 1010.3 - 0.0 - - - - - - -
26/11:30am 13.9 W 14 19 1010.6 - 0.0 - - - - - - -
26/11:00am 13.4 W 15 21 1010.8 - 0.0 - - - - - - -
26/10:30am 12.9 W 17 24 1010.9 - 0.0 - - - - - - -
26/10:15am 12.6 W 18 28 1010.8 - 0.0 - - - - - - -
26/10:00am 12.5 W 19 26 1010.8 - 0.0 - - - - - - -
26/09:48am 12.3 W 17 27 1010.7 - 0.0 - - - - - - -
26/09:30am 11.9 W 18 23 1010.3 - 0.0 - - - - - - -
26/09:00am 11.3 W 17 21 1010.4 - 0.0 Fine Mostly clear 30 1 1.0 - -
26/08:30am 10.9 W 13 19 1010.5 - 0.0 - - - - - - -
26/08:00am 10.1 W 11 15 1010.1 - 0.0 - - - - - - -
26/07:30am 9.6 W 13 17 1009.8 - 0.0 - - - - - - -
26/07:00am 8.7 WNW 11 14 1009.0 - 0.0 - - - - - - -
26/06:30am 8.4 WNW 10 13 1008.6 - 0.0 - - - - - - -
26/06:00am 8.2 WNW 11 15 1007.9 - 0.0 - - - - - - -
26/05:30am 8.5 WNW 11 17 1007.4 - 0.0 - - - - - - -
26/05:00am 9.3 W 17 21 1007.4 - 0.0 - - - - - - -
26/04:30am 8.5 W 11 16 1007.1 - 0.0 - - - - - - -

Other Formats:

Comma delimited format used in spreadsheet applications
http://www.bom.gov.au/fwo/IDT60701/IDT60701.94933.axf

JavaScript Object Notation format (JSON) in row-major order
http://www.bom.gov.au/fwo/IDT60701/IDT60701.94933.json